Time;durP1;ratioP1;P1;durP2;ratioP2;P2;SDS_P1;SDS_P2;PMS_P1;PMS_P2;Temp;Humidity;BMP_temperature;BMP_pressure;BME280_temperature;BME280_humidity;BME280_pressure;Samples;Min_cycle;Max_cycle;Signal;HPM_P1;HPM_P2
2022/12/29 00:02:16;;;;;;;1.48;0.70;;;;;;;9.85;53.12;99964.13;4988709;28;20061;-74
2022/12/29 00:04:45;;;;;;;1.17;0.70;;;;;;;9.84;53.07;99959.69;4982417;28;20043;-74
2022/12/29 00:07:13;;;;;;;1.23;0.70;;;;;;;9.85;53.10;99954.06;4984153;28;20042;-74
2022/12/29 00:09:41;;;;;;;1.48;0.77;;;;;;;9.88;53.20;99941.13;4987148;28;20046;-74
2022/12/29 00:12:09;;;;;;;1.13;0.70;;;;;;;9.90;53.32;99944.56;4983925;28;20038;-74
2022/12/29 00:17:23;;;;;;;0.98;0.73;;;;;;;9.93;53.58;99927.84;4989558;28;20057;-74
2022/12/29 00:36:29;;;;;;;1.02;0.68;;;;;;;9.98;53.01;99903.66;4974370;28;20061;-75
2022/12/29 00:44:34;;;;;;;0.63;0.57;;;;;;;9.98;53.03;99909.13;4985029;28;20049;-76
2022/12/29 00:47:04;;;;;;;1.02;0.70;;;;;;;10.00;52.88;99909.81;4984555;28;20419;-74
2022/12/29 00:49:32;;;;;;;1.50;0.80;;;;;;;10.01;52.92;99903.34;4983612;28;20050;-74
2022/12/29 00:52:04;;;;;;;1.23;0.65;;;;;;;10.01;53.01;99901.47;4989153;28;20046;-73
2022/12/29 00:54:34;;;;;;;1.00;0.50;;;;;;;10.01;52.90;99893.28;4987095;28;20495;-74
2022/12/29 00:57:02;;;;;;;0.60;0.60;;;;;;;10.02;53.20;99895.00;4980611;28;20346;-74
2022/12/29 00:59:31;;;;;;;0.80;0.50;;;;;;;10.02;53.35;99892.25;4983904;28;20047;-74
2022/12/29 01:01:59;;;;;;;0.93;0.50;;;;;;;10.04;53.58;99889.38;4982289;28;20050;-75
2022/12/29 01:04:28;;;;;;;1.27;0.40;;;;;;;10.04;53.45;99881.16;4984453;28;20038;-75
2022/12/29 01:06:58;;;;;;;0.50;0.50;;;;;;;10.06;53.36;99885.47;4981825;28;20050;-77
2022/12/29 01:12:12;;;;;;;0.32;0.30;;;;;;;10.06;53.49;99882.75;4982347;28;20513;-76
2022/12/29 01:14:41;;;;;;;0.47;0.20;;;;;;;10.07;53.58;99886.34;4987793;28;20042;-74
2022/12/29 01:17:09;;;;;;;0.43;0.32;;;;;;;10.09;53.55;99893.34;4986308;28;20054;-74
2022/12/29 01:19:37;;;;;;;0.50;0.40;;;;;;;10.11;53.29;99904.13;4978394;28;20035;-75
2022/12/29 01:22:06;;;;;;;0.70;0.40;;;;;;;10.14;53.41;99892.91;4985175;28;20101;-75
2022/12/29 01:24:34;;;;;;;0.40;0.30;;;;;;;10.13;53.58;99902.97;4981093;28;20042;-75
2022/12/29 01:27:02;;;;;;;0.25;0.25;;;;;;;10.16;53.12;99893.59;4974130;28;20054;-75
2022/12/29 01:29:30;;;;;;;0.95;0.30;;;;;;;10.18;53.57;99900.63;4987364;28;20536;-76
2022/12/29 01:31:58;;;;;;;0.22;0.22;;;;;;;10.19;53.36;99896.03;4989143;28;20042;-77
2022/12/29 01:34:26;;;;;;;0.52;0.38;;;;;;;10.22;52.93;99893.00;4983560;28;20089;-76
2022/12/29 01:36:54;;;;;;;0.20;0.20;;;;;;;10.24;53.30;99901.88;4985333;28;20038;-77
2022/12/29 01:39:23;;;;;;;0.20;0.20;;;;;;;10.29;53.28;99885.88;4985161;28;20415;-77
2022/12/29 01:41:51;;;;;;;0.45;0.30;;;;;;;10.29;53.49;99893.22;4974657;28;20396;-75
2022/12/29 01:44:54;;;;;;;0.60;0.30;;;;;;;10.31;53.24;99892.06;4979643;28;20500;-76
2022/12/29 01:47:30;;;;;;;1.02;0.65;;;;;;;10.33;53.12;99870.00;4983662;28;20046;-75
2022/12/29 01:50:01;;;;;;;0.30;0.22;;;;;;;10.36;52.68;99875.16;4977237;28;20073;-75
2022/12/29 01:52:33;;;;;;;0.50;0.38;;;;;;;10.36;53.13;99870.56;4986226;28;20443;-75
2022/12/29 01:55:05;;;;;;;0.55;0.30;;;;;;;10.38;52.80;99875.88;4983587;28;20380;-76
2022/12/29 01:57:38;;;;;;;0.43;0.30;;;;;;;10.39;52.29;99859.31;4984415;28;20051;-75
2022/12/29 02:00:09;;;;;;;0.30;0.30;;;;;;;10.41;52.63;99861.88;4980143;28;20100;-76
2022/12/29 02:02:43;;;;;;;0.75;0.40;;;;;;;10.44;52.66;99859.69;4984883;28;20034;-77
2022/12/29 02:05:15;;;;;;;0.88;0.40;;;;;;;10.46;52.66;99863.13;4985488;28;20050;-75
2022/12/29 02:07:47;;;;;;;0.32;0.32;;;;;;;10.49;52.56;99856.47;4981766;28;20400;-75
2022/12/29 02:10:17;;;;;;;0.35;0.35;;;;;;;10.50;52.05;99860.91;4987713;28;20046;-75
2022/12/29 02:12:46;;;;;;;0.57;0.40;;;;;;;10.53;52.22;99857.88;4987592;28;20042;-76
2022/12/29 02:15:15;;;;;;;1.05;0.60;;;;;;;10.56;51.80;99860.34;4987455;28;20403;-75
2022/12/29 02:17:58;;;;;;;0.85;0.60;;;;;;;10.59;51.36;99860.00;4996593;28;20061;-78
2022/12/29 02:21:10;;;;;;;2.08;0.82;;;;;;;10.53;51.36;99856.03;5003331;28;20049;-75
2022/12/29 02:23:59;;;;;;;0.73;0.43;;;;;;;10.60;51.38;99864.47;5002259;23;20506;-70
2022/12/29 02:26:42;;;;;;;0.95;0.60;;;;;;;10.62;51.57;99851.50;4992894;28;20068;-69
2022/12/29 02:29:53;;;;;;;1.35;0.68;;;;;;;10.62;51.32;99854.22;5008557;28;20524;-69
2022/12/29 02:32:30;;;;;;;1.30;0.50;;;;;;;10.65;50.90;99856.63;4990268;28;20084;-69
2022/12/29 02:35:06;;;;;;;1.58;0.50;;;;;;;10.67;51.03;99843.66;4979884;28;20039;-69
2022/12/29 02:37:43;;;;;;;1.15;0.60;;;;;;;10.70;51.02;99832.41;4986500;28;20423;-70
2022/12/29 02:40:24;;;;;;;3.20;0.68;;;;;;;10.72;50.38;99833.09;4989260;28;20048;-70
2022/12/29 02:42:59;;;;;;;1.63;0.60;;;;;;;10.72;51.18;99834.97;4982046;28;20039;-68
2022/12/29 02:45:37;;;;;;;2.25;0.60;;;;;;;10.75;50.47;99818.22;4977123;28;20050;-70
2022/12/29 02:48:15;;;;;;;1.63;0.80;;;;;;;10.77;50.69;99829.88;4980952;28;20047;-70
2022/12/29 02:50:52;;;;;;;1.50;1.02;;;;;;;10.78;50.38;99820.66;4981783;28;20478;-70
2022/12/29 02:54:40;;;;;;;0.70;0.57;;;;;;;10.78;50.56;99818.78;4982466;28;20054;-71
2022/12/29 02:56:08;;;;;;;2.90;0.80;;;;;;;10.78;50.45;99821.50;4980525;28;20104;-70
2022/12/29 02:58:36;;;;;;;1.00;0.80;;;;;;;10.81;50.54;99814.88;4982949;28;20039;-69
2022/12/29 03:01:22;;;;;;;0.93;0.57;;;;;;;10.85;50.35;99808.03;4983508;28;20073;-70
2022/12/29 03:04:10;;;;;;;1.42;0.80;;;;;;;10.84;49.97;99814.53;4981422;28;20034;-69
2022/12/29 03:06:53;;;;;;;2.63;0.93;;;;;;;10.85;50.23;99808.88;4980276;28;21252;-70
2022/12/29 03:09:32;;;;;;;1.40;0.65;;;;;;;10.87;50.34;99795.91;4986023;28;20457;-69
2022/12/29 03:12:20;;;;;;;1.13;0.55;;;;;;;10.88;50.50;99788.56;4987757;28;20042;-71
2022/12/29 03:17:53;;;;;;;0.95;0.47;;;;;;;10.89;50.12;99799.34;4981838;28;20137;-70
2022/12/29 03:20:29;;;;;;;1.05;0.60;;;;;;;10.91;50.02;99789.06;4987074;28;20129;-70
2022/12/29 03:23:01;;;;;;;1.17;0.50;;;;;;;10.91;50.51;99801.91;4983250;28;20047;-71
2022/12/29 03:25:36;;;;;;;1.73;0.70;;;;;;;10.92;50.46;99788.06;4981183;28;20044;-71
2022/12/29 03:28:12;;;;;;;0.70;0.50;;;;;;;10.92;50.12;99782.56;4985042;28;20042;-71
2022/12/29 03:30:46;;;;;;;0.52;0.40;;;;;;;10.93;50.04;99775.22;4976641;28;20038;-71
2022/12/29 03:33:18;;;;;;;0.88;0.50;;;;;;;10.94;50.39;99777.81;4978521;28;20251;-71
2022/12/29 03:35:50;;;;;;;0.43;0.40;;;;;;;10.95;50.01;99798.69;4986915;28;20046;-71
2022/12/29 03:38:22;;;;;;;1.02;0.50;;;;;;;10.96;50.38;99786.72;4982758;28;20149;-71
2022/12/29 03:40:53;;;;;;;0.88;0.40;;;;;;;10.95;50.20;99784.13;4980444;28;20049;-71
2022/12/29 03:43:25;;;;;;;1.27;0.60;;;;;;;10.95;50.34;99776.78;4982820;28;20492;-71
2022/12/29 03:45:55;;;;;;;0.50;0.40;;;;;;;10.97;50.41;99774.75;4983946;28;20049;-71
2022/12/29 03:48:22;;;;;;;0.70;0.40;;;;;;;10.97;49.86;99769.28;4981319;28;20126;-71
2022/12/29 03:50:53;;;;;;;0.90;0.47;;;;;;;11.01;50.13;99774.41;4980350;28;20043;-70
2022/12/29 03:53:22;;;;;;;1.33;0.40;;;;;;;11.00;50.25;99773.53;4975609;28;20625;-71
2022/12/29 03:55:51;;;;;;;1.13;0.65;;;;;;;11.02;49.92;99770.66;4982995;28;20109;-71
2022/12/29 03:58:19;;;;;;;0.98;0.43;;;;;;;11.03;49.76;99773.22;4984218;28;20056;-71
2022/12/29 04:01:07;;;;;;;0.43;0.32;;;;;;;11.02;50.25;99744.13;4983404;28;20046;-71
2022/12/29 04:03:38;;;;;;;0.55;0.40;;;;;;;11.05;49.70;99751.16;4980045;28;20065;-71
2022/12/29 04:06:07;;;;;;;0.55;0.30;;;;;;;11.09;49.99;99744.31;4982402;28;20130;-71
2022/12/29 04:08:41;;;;;;;0.88;0.40;;;;;;;11.08;49.67;99743.47;4981325;28;20066;-70
2022/12/29 04:11:09;;;;;;;0.75;0.40;;;;;;;11.10;50.17;99732.34;4979756;28;20600;-71
2022/12/29 04:13:40;;;;;;;0.50;0.40;;;;;;;11.11;49.63;99740.41;4982281;28;20055;-71
2022/12/29 04:16:09;;;;;;;1.02;0.40;;;;;;;11.10;50.18;99737.84;4975618;28;20058;-70
2022/12/29 04:18:37;;;;;;;1.58;0.40;;;;;;;11.13;49.44;99746.59;4981227;28;20050;-70
2022/12/29 04:21:07;;;;;;;1.05;0.40;;;;;;;11.15;49.45;99758.22;4979466;28;20057;-71
2022/12/29 04:23:39;;;;;;;1.20;0.40;;;;;;;11.14;49.61;99756.50;4977283;28;20506;-71
2022/12/29 04:26:09;;;;;;;0.68;0.47;;;;;;;11.16;49.56;99762.66;4974828;28;20097;-70
2022/12/29 04:28:55;;;;;;;1.00;0.40;;;;;;;11.16;49.61;99759.06;4986101;28;20057;-70
2022/12/29 04:31:58;;;;;;;0.55;0.40;;;;;;;11.14;49.69;99777.56;4938211;28;20069;-70
2022/12/29 04:34:28;;;;;;;0.30;0.30;;;;;;;11.19;49.84;99761.50;4972075;28;20034;-71
2022/12/29 04:36:58;;;;;;;1.15;0.50;;;;;;;11.21;49.69;99768.53;4976712;28;20381;-70
2022/12/29 04:39:25;;;;;;;0.65;0.50;;;;;;;11.21;49.58;99754.84;4969805;28;20047;-71
2022/12/29 04:41:53;;;;;;;1.02;0.52;;;;;;;11.23;49.05;99757.38;4986213;28;20038;-71
2022/12/29 04:44:22;;;;;;;0.88;0.60;;;;;;;11.24;49.57;99753.63;4978213;28;20534;-71
2022/12/29 04:47:10;;;;;;;1.48;0.70;;;;;;;11.23;49.48;99754.66;4976942;28;20096;-70
2022/12/29 04:49:56;;;;;;;1.00;0.70;;;;;;;11.25;48.90;99758.09;4981575;28;20105;-70
2022/12/29 04:52:51;;;;;;;3.00;0.70;;;;;;;11.27;49.41;99775.22;4945559;28;20043;-71
2022/12/29 04:55:19;;;;;;;1.02;0.63;;;;;;;11.26;49.22;99757.91;4977234;28;20047;-71
2022/12/29 04:57:47;;;;;;;1.33;0.70;;;;;;;11.29;48.67;99768.56;4982050;28;20056;-71
2022/12/29 05:00:18;;;;;;;1.88;0.63;;;;;;;11.31;49.17;99765.63;4968289;28;20047;-70
2022/12/29 05:02:47;;;;;;;1.25;0.70;;;;;;;11.31;48.95;99774.69;4976660;28;20522;-71
2022/12/29 05:05:16;;;;;;;1.25;0.70;;;;;;;11.32;48.67;99761.88;4978724;28;20049;-71
2022/12/29 05:07:47;;;;;;;1.08;0.60;;;;;;;11.32;48.48;99765.47;4983364;28;20096;-70
2022/12/29 05:10:17;;;;;;;1.35;0.80;;;;;;;11.35;48.66;99765.16;4979406;28;20504;-71
2022/12/29 05:12:46;;;;;;;0.75;0.57;;;;;;;11.36;48.44;99775.09;4982352;28;20046;-70
2022/12/29 05:15:14;;;;;;;1.10;0.73;;;;;;;11.37;48.65;99770.47;4980264;28;20053;-70
2022/12/29 05:17:43;;;;;;;1.00;0.60;;;;;;;11.39;48.25;99782.09;4984920;28;20051;-71
2022/12/29 05:20:12;;;;;;;1.20;0.70;;;;;;;11.40;48.38;99788.44;4979797;28;20515;-71
2022/12/29 05:22:40;;;;;;;1.95;1.15;;;;;;;11.40;48.40;99782.94;4982572;28;20066;-71
2022/12/29 05:25:09;;;;;;;1.25;0.65;;;;;;;11.41;48.39;99790.16;4979214;28;20097;-71
2022/12/29 05:27:54;;;;;;;1.38;0.90;;;;;;;11.41;48.05;99785.53;4980391;28;20069;-71
2022/12/29 05:30:39;;;;;;;2.38;0.80;;;;;;;11.41;47.99;99793.75;4974090;28;20512;-72
2022/12/29 05:33:07;;;;;;;0.88;0.50;;;;;;;11.42;47.90;99791.88;4982504;28;20046;-71
2022/12/29 05:35:35;;;;;;;2.38;1.10;;;;;;;11.43;48.55;99786.22;4979720;28;20034;-70
2022/12/29 05:38:03;;;;;;;1.50;0.80;;;;;;;11.43;47.96;99783.50;4983440;28;20050;-70
2022/12/29 05:40:30;;;;;;;0.98;0.60;;;;;;;11.44;48.09;99787.94;4983284;28;20035;-71
2022/12/29 05:43:04;;;;;;;1.50;0.70;;;;;;;11.43;48.27;99788.97;4976016;28;20034;-71
2022/12/29 05:46:01;;;;;;;1.40;0.65;;;;;;;11.42;48.22;99780.91;4976128;28;20043;-71
2022/12/29 05:48:58;;;;;;;0.98;0.55;;;;;;;11.41;48.26;99795.63;4930865;28;20159;-71
2022/12/29 05:51:46;;;;;;;1.15;0.57;;;;;;;11.42;48.18;99787.25;4974950;28;20047;-71
2022/12/29 05:54:15;;;;;;;1.27;0.65;;;;;;;11.43;47.97;99796.31;4971256;28;20046;-71
2022/12/29 05:56:43;;;;;;;1.67;0.60;;;;;;;11.42;47.77;99783.66;4978177;28;20065;-71
2022/12/29 05:59:13;;;;;;;1.05;0.60;;;;;;;11.44;47.88;99803.53;4980773;28;20121;-70
2022/12/29 06:01:42;;;;;;;1.80;0.70;;;;;;;11.42;47.40;99800.94;4974791;28;20137;-71
2022/12/29 06:04:10;;;;;;;2.42;0.77;;;;;;;11.41;47.20;99810.19;4980990;28;20046;-71
2022/12/29 06:06:39;;;;;;;0.80;0.60;;;;;;;11.41;47.72;99815.66;4979167;28;20039;-71
2022/12/29 06:09:12;;;;;;;0.50;0.47;;;;;;;11.41;47.55;99806.59;4979674;28;20042;-71
2022/12/29 06:11:41;;;;;;;1.73;0.70;;;;;;;11.41;47.70;99826.63;4974167;28;20038;-71
2022/12/29 06:14:09;;;;;;;1.10;0.55;;;;;;;11.41;47.45;99820.28;4979088;28;20112;-70
2022/12/29 06:16:38;;;;;;;1.38;0.60;;;;;;;11.41;47.36;99821.16;4976621;28;20666;-71
2022/12/29 06:19:13;;;;;;;1.63;0.60;;;;;;;11.38;47.39;99818.75;4977195;28;20053;-71
2022/12/29 06:21:41;;;;;;;0.93;0.57;;;;;;;11.39;47.02;99814.13;4977557;28;20065;-71
2022/12/29 06:24:10;;;;;;;1.85;0.50;;;;;;;11.38;46.96;99818.75;4978406;28;20047;-71
2022/12/29 06:26:39;;;;;;;1.27;0.60;;;;;;;11.38;47.45;99826.13;4981043;28;20040;-71
2022/12/29 06:29:09;;;;;;;1.55;0.45;;;;;;;11.39;46.96;99827.84;4976741;28;20051;-71
2022/12/29 06:31:39;;;;;;;1.60;0.50;;;;;;;11.38;46.91;99840.66;4974280;28;20141;-71
2022/12/29 06:34:07;;;;;;;0.80;0.50;;;;;;;11.35;46.94;99844.59;4977707;28;20542;-70
2022/12/29 06:36:37;;;;;;;2.17;0.77;;;;;;;11.35;47.11;99855.53;4979443;28;20043;-71
2022/12/29 06:39:05;;;;;;;1.40;0.50;;;;;;;11.35;47.45;99863.75;4980978;28;20137;-71
2022/12/29 06:41:34;;;;;;;1.48;0.60;;;;;;;11.34;47.22;99859.31;4984033;28;20069;-71
2022/12/29 06:44:21;;;;;;;1.38;0.70;;;;;;;11.32;46.93;99861.34;4981601;28;20061;-71
2022/12/29 06:47:03;;;;;;;1.52;0.63;;;;;;;11.33;46.68;99856.72;4974037;28;20484;-72
2022/12/29 06:49:30;;;;;;;0.90;0.50;;;;;;;11.32;47.25;99868.69;4978802;28;20148;-71
2022/12/29 06:52:00;;;;;;;1.67;0.70;;;;;;;11.31;47.25;99862.34;4976758;28;20046;-71
2022/12/29 06:54:28;;;;;;;2.63;0.70;;;;;;;11.30;46.54;99857.94;4970718;28;20407;-71
2022/12/29 06:56:56;;;;;;;2.78;0.80;;;;;;;11.30;46.55;99863.41;4985940;28;20043;-71
2022/12/29 06:59:24;;;;;;;1.63;0.45;;;;;;;11.30;46.89;99857.94;4985707;28;20050;-69
2022/12/29 07:01:52;;;;;;;1.65;0.73;;;;;;;11.29;46.73;99872.66;4987051;28;20057;-71
2022/12/29 07:04:21;;;;;;;0.80;0.52;;;;;;;11.30;46.38;99873.50;4976408;28;20054;-70
2022/12/29 07:06:49;;;;;;;1.27;0.57;;;;;;;11.28;46.52;99868.19;4985203;28;20480;-71
2022/12/29 07:09:17;;;;;;;1.80;0.68;;;;;;;11.28;46.70;99875.53;4979566;28;20129;-70
2022/12/29 07:11:45;;;;;;;2.53;0.60;;;;;;;11.29;46.60;99867.16;4986951;28;20053;-70
2022/12/29 07:14:13;;;;;;;1.25;0.50;;;;;;;11.28;46.61;99865.44;4977485;28;20621;-71
2022/12/29 07:16:41;;;;;;;2.75;0.57;;;;;;;11.28;46.45;99879.13;4981108;28;20466;-70
2022/12/29 07:19:09;;;;;;;1.30;0.63;;;;;;;11.29;46.30;99880.88;4989011;28;20503;-70
2022/12/29 07:21:38;;;;;;;1.15;0.70;;;;;;;11.30;46.41;99889.94;4983514;28;20047;-71
2022/12/29 07:24:12;;;;;;;1.08;0.40;;;;;;;11.27;46.23;99885.63;4981319;28;20107;-70
2022/12/29 07:26:41;;;;;;;1.02;0.80;;;;;;;11.28;46.36;99878.28;4982044;28;20526;-71
2022/12/29 07:29:08;;;;;;;1.48;0.47;;;;;;;11.27;46.85;99885.63;4987150;28;20136;-70
2022/12/29 07:31:36;;;;;;;1.33;0.60;;;;;;;11.27;46.23;99888.38;4977594;28;20047;-70
2022/12/29 07:34:04;;;;;;;1.35;0.63;;;;;;;11.27;46.59;99898.47;4976282;28;20113;-70
2022/12/29 07:36:32;;;;;;;2.17;0.55;;;;;;;11.24;46.13;99902.38;4987875;28;20046;-70
2022/12/29 07:39:03;;;;;;;1.75;0.55;;;;;;;11.26;46.25;99914.03;4981218;28;20042;-70
2022/12/29 07:41:31;;;;;;;2.38;0.60;;;;;;;11.24;46.54;99904.25;4982956;28;20047;-70
2022/12/29 07:44:02;;;;;;;2.20;0.70;;;;;;;11.23;45.91;99919.84;4973884;28;20043;-71
2022/12/29 07:46:32;;;;;;;2.03;0.77;;;;;;;11.23;46.08;99922.56;4981189;28;20124;-70
2022/12/29 07:49:20;;;;;;;1.73;0.60;;;;;;;11.20;46.38;99942.09;4982575;28;20054;-70
2022/12/29 07:51:48;;;;;;;2.40;0.70;;;;;;;11.22;45.72;99912.66;4979756;28;20059;-70
2022/12/29 07:54:18;;;;;;;2.15;0.85;;;;;;;11.23;45.83;99925.31;4981411;28;20063;-70
2022/12/29 07:56:46;;;;;;;2.67;0.80;;;;;;;11.22;46.08;99930.97;4979396;28;20422;-71
2022/12/29 07:59:14;;;;;;;1.52;0.60;;;;;;;11.22;45.71;99937.31;4984217;28;20059;-70
2022/12/29 08:01:42;;;;;;;1.13;0.68;;;;;;;11.20;45.83;99942.09;4977482;28;20047;-71
2022/12/29 08:04:10;;;;;;;3.15;0.73;;;;;;;11.20;45.68;99931.13;4984731;28;20042;-71
2022/12/29 08:06:38;;;;;;;2.08;0.68;;;;;;;11.20;45.82;99941.22;4974370;28;20133;-71
2022/12/29 08:09:05;;;;;;;2.00;0.82;;;;;;;11.20;45.60;99938.47;4979324;28;20137;-71
2022/12/29 08:11:46;;;;;;;2.10;0.70;;;;;;;11.20;45.83;99933.88;4978382;28;20042;-70
2022/12/29 08:14:14;;;;;;;2.35;0.50;;;;;;;11.19;45.55;99939.50;4976139;28;20141;-71
2022/12/29 08:16:41;;;;;;;2.03;0.65;;;;;;;11.20;45.75;99941.22;4977554;28;20038;-71
2022/12/29 08:19:11;;;;;;;2.95;0.80;;;;;;;11.20;45.18;99943.97;4983722;28;20050;-71
2022/12/29 08:21:40;;;;;;;2.67;0.90;;;;;;;11.20;45.39;99947.56;4984550;28;20038;-71
2022/12/29 08:24:09;;;;;;;1.38;0.73;;;;;;;11.20;45.67;99947.56;5004385;23;20078;-79
2022/12/29 08:26:37;;;;;;;2.55;0.80;;;;;;;11.19;45.40;99944.97;4990140;28;20050;-80
2022/12/29 08:29:06;;;;;;;1.42;0.70;;;;;;;11.21;45.53;99948.44;4978409;28;20054;-78
2022/12/29 08:31:35;;;;;;;2.85;0.80;;;;;;;11.18;45.13;99949.59;4987797;28;20035;-80
2022/12/29 08:34:03;;;;;;;2.10;0.60;;;;;;;11.19;45.30;99943.09;4975760;28;20046;-80
2022/12/29 08:36:31;;;;;;;3.15;0.82;;;;;;;11.19;45.52;99947.72;4972277;28;20157;-79
2022/12/29 08:38:59;;;;;;;2.63;1.20;;;;;;;11.20;45.15;99965.88;4972086;28;20057;-80
2022/12/29 08:41:27;;;;;;;3.00;1.23;;;;;;;11.19;45.41;99973.22;4965117;28;20043;-79
2022/12/29 08:43:55;;;;;;;2.45;1.02;;;;;;;11.19;45.57;99970.50;4969253;28;20081;-81
2022/12/29 08:46:24;;;;;;;3.13;0.90;;;;;;;11.20;45.53;99980.44;4967787;28;20390;-81
2022/12/29 08:48:52;;;;;;;2.83;0.93;;;;;;;11.17;45.95;99983.47;4970120;28;20043;-81
2022/12/29 08:51:20;;;;;;;1.80;0.73;;;;;;;11.15;45.65;99976.44;4972056;28;20117;-80
2022/12/29 08:53:52;;;;;;;2.50;0.90;;;;;;;11.12;46.00;99987.72;4970748;28;20046;-80
2022/12/29 08:56:20;;;;;;;3.00;1.00;;;;;;;11.12;45.90;99987.72;4969495;28;20038;-79
2022/12/29 08:58:51;;;;;;;3.30;1.13;;;;;;;11.08;45.95;99994.53;4968611;28;20536;-78
2022/12/29 09:01:20;;;;;;;4.53;1.20;;;;;;;11.07;45.87;99990.91;4968019;28;20074;-80
2022/12/29 09:03:50;;;;;;;5.07;1.00;;;;;;;11.05;46.12;99983.91;4969998;28;20051;-80
2022/12/29 09:06:38;;;;;;;3.15;1.00;;;;;;;11.00;46.27;99978.88;4969093;28;20047;-80
2022/12/29 09:09:07;;;;;;;4.10;1.05;;;;;;;10.99;46.51;99994.44;4970968;28;20093;-79
2022/12/29 09:11:35;;;;;;;3.13;1.00;;;;;;;11.00;46.12;99981.63;4972915;28;20038;-79
2022/12/29 09:14:03;;;;;;;3.13;0.85;;;;;;;10.99;46.78;99997.19;4971344;28;20232;-78
2022/12/29 09:16:31;;;;;;;4.07;0.80;;;;;;;11.00;46.69;99998.06;4965130;28;20042;-79
2022/12/29 09:19:01;;;;;;;2.53;0.90;;;;;;;11.06;46.42;99991.09;4969260;28;20515;-78
2022/12/29 09:21:29;;;;;;;1.50;0.70;;;;;;;11.07;46.22;99998.28;4971049;28;20078;-77
2022/12/29 09:23:57;;;;;;;1.67;0.80;;;;;;;11.08;46.30;100011.81;4965325;28;20098;-81
2022/12/29 09:26:25;;;;;;;1.88;0.60;;;;;;;11.09;46.41;99998.97;4962123;28;20133;-80
2022/12/29 09:28:53;;;;;;;1.50;0.70;;;;;;;11.14;46.27;100019.38;4968095;28;20556;-80
2022/12/29 09:31:21;;;;;;;2.28;0.70;;;;;;;11.17;46.00;100013.59;4972154;28;20106;-80
2022/12/29 09:33:49;;;;;;;2.10;0.73;;;;;;;11.20;46.40;100021.50;4972463;28;20390;-80
2022/12/29 09:36:19;;;;;;;2.08;0.70;;;;;;;11.26;46.00;100022.75;4972300;28;20513;-80
2022/12/29 09:38:46;;;;;;;3.90;1.00;;;;;;;11.30;46.40;100030.50;4971759;28;20034;-77
2022/12/29 09:41:21;;;;;;;3.17;1.10;;;;;;;11.37;45.76;100036.19;4969341;28;20054;-80
2022/12/29 09:44:04;;;;;;;3.30;1.00;;;;;;;11.43;45.66;100027.31;4962287;28;20544;-80
2022/12/29 09:46:39;;;;;;;2.38;0.93;;;;;;;11.45;45.11;100038.13;4970339;28;20039;-80
2022/12/29 09:49:20;;;;;;;3.67;0.70;;;;;;;11.52;44.88;100039.22;4970234;28;20051;-79
2022/12/29 09:51:54;;;;;;;4.60;0.90;;;;;;;11.56;44.90;100032.38;4965328;28;20240;-80
2022/12/29 09:54:33;;;;;;;3.20;0.90;;;;;;;11.59;44.92;100021.97;4963947;28;20043;-80
2022/12/29 09:57:02;;;;;;;2.55;0.82;;;;;;;11.59;44.73;100043.88;4969766;28;20074;-83
2022/12/29 09:59:39;;;;;;;2.78;1.00;;;;;;;11.64;44.42;100030.56;4957491;28;20577;-81
2022/12/29 10:02:22;;;;;;;2.63;0.80;;;;;;;11.65;43.80;100026.81;4973068;28;20118;-80
2022/12/29 10:04:51;;;;;;;3.35;1.08;;;;;;;11.65;44.96;100024.06;4977483;28;20090;-79
2022/12/29 10:07:31;;;;;;;2.75;0.77;;;;;;;11.72;43.51;100040.72;4974900;28;20486;-78
2022/12/29 10:10:08;;;;;;;2.03;0.70;;;;;;;11.77;43.88;100018.34;4972780;28;20106;-80
2022/12/29 10:12:49;;;;;;;3.08;0.90;;;;;;;11.80;43.70;100021.59;4972780;28;20102;-81
2022/12/29 10:15:34;;;;;;;2.35;0.77;;;;;;;11.86;43.41;100023.72;4969998;28;20050;-80
2022/12/29 10:18:12;;;;;;;2.90;0.98;;;;;;;11.90;43.55;100016.84;4970735;28;20133;-79
2022/12/29 10:20:50;;;;;;;3.33;0.85;;;;;;;11.95;43.71;100028.22;4973304;28;20053;-79
2022/12/29 10:23:29;;;;;;;2.83;1.00;;;;;;;11.99;43.17;100015.00;4970794;28;20057;-78
2022/12/29 10:25:59;;;;;;;4.72;1.10;;;;;;;12.01;43.65;100030.28;4971748;28;20066;-78
2022/12/29 10:28:36;;;;;;;4.82;1.00;;;;;;;12.03;42.39;100039.22;4966703;28;20057;-80
2022/12/29 10:31:09;;;;;;;2.67;1.10;;;;;;;12.02;42.89;100022.94;4966544;28;20056;-79
2022/12/29 10:33:42;;;;;;;3.83;0.98;;;;;;;12.03;42.52;100036.47;4975326;28;20043;-78
2022/12/29 10:36:16;;;;;;;3.08;0.82;;;;;;;12.05;42.52;100045.38;4973419;28;20138;-79
2022/12/29 10:38:52;;;;;;;3.03;0.90;;;;;;;12.06;42.08;100022.41;4972456;28;20059;-79
2022/12/29 10:41:26;;;;;;;2.47;0.68;;;;;;;12.06;42.37;100052.59;4959614;28;20048;-79
2022/12/29 10:43:57;;;;;;;5.32;1.33;;;;;;;12.05;42.41;100028.94;4972820;28;20268;-82
2022/12/29 10:46:29;;;;;;;2.83;0.82;;;;;;;12.08;42.71;100047.81;4969185;28;20497;-80
2022/12/29 10:48:58;;;;;;;2.60;0.80;;;;;;;12.06;42.78;100058.06;4991582;28;20039;-81
2022/12/29 10:51:31;;;;;;;3.58;0.82;;;;;;;12.09;42.13;100037.69;4974229;28;20039;-80
2022/12/29 10:54:04;;;;;;;2.88;0.95;;;;;;;12.13;42.34;100041.81;4978971;28;20047;-81
2022/12/29 10:56:35;;;;;;;2.67;0.98;;;;;;;12.13;42.25;100059.13;4966585;28;20058;-80
2022/12/29 10:59:16;;;;;;;2.67;0.82;;;;;;;12.17;41.74;100053.34;4974721;28;20059;-80
2022/12/29 11:01:57;;;;;;;4.32;0.90;;;;;;;12.19;41.86;100062.25;4975409;28;20051;-80
2022/12/29 11:04:44;;;;;;;4.38;1.10;;;;;;;12.21;40.99;100066.56;4973308;28;20133;-80
2022/12/29 11:07:13;;;;;;;3.30;0.88;;;;;;;12.21;42.25;100065.72;4974438;28;20062;-80
2022/12/29 11:09:46;;;;;;;2.90;0.80;;;;;;;12.23;41.67;100061.75;4975761;28;20043;-80
2022/12/29 11:12:21;;;;;;;3.45;0.90;;;;;;;12.24;40.80;100068.09;4972309;28;20050;-80
2022/12/29 11:15:02;;;;;;;3.40;1.00;;;;;;;12.24;40.71;100070.84;4973456;28;20047;-82
2022/12/29 11:17:30;;;;;;;2.92;0.88;;;;;;;12.20;41.54;100084.06;4972352;28;20057;-81
2022/12/29 11:19:58;;;;;;;2.85;0.90;;;;;;;12.21;41.30;100074.81;4988544;28;20117;-79
2022/12/29 11:22:29;;;;;;;3.58;1.10;;;;;;;12.21;41.00;100065.72;4974186;28;20050;-79
2022/12/29 11:25:13;;;;;;;3.00;1.00;;;;;;;12.18;40.25;100077.88;4964249;28;20039;-78
2022/12/29 11:27:56;;;;;;;6.75;1.20;;;;;;;12.14;40.93;100095.66;4972671;28;20379;-79
2022/12/29 11:30:25;;;;;;;4.93;1.10;;;;;;;12.10;41.33;100092.41;4970665;28;20058;-79
2022/12/29 11:32:55;;;;;;;2.90;0.88;;;;;;;12.08;41.58;100108.16;4964788;28;20503;-79
2022/12/29 11:35:32;;;;;;;2.28;0.77;;;;;;;12.10;40.84;100095.13;4973481;28;20599;-79
2022/12/29 11:38:02;;;;;;;5.72;1.40;;;;;;;12.06;41.72;100095.63;4973231;28;20153;-81
2022/12/29 11:40:34;;;;;;;4.05;1.10;;;;;;;12.05;40.71;100099.38;4972772;28;20046;-82
2022/12/29 11:43:03;;;;;;;3.40;1.40;;;;;;;12.03;41.02;100099.56;4974911;28;20101;-80
2022/12/29 11:45:35;;;;;;;2.47;1.20;;;;;;;12.02;40.87;100099.72;4976635;28;20062;-79
2022/12/29 11:48:08;;;;;;;3.97;1.17;;;;;;;12.00;40.46;100097.13;4980452;28;20078;-79
2022/12/29 11:50:39;;;;;;;4.38;1.00;;;;;;;11.98;40.91;100106.53;4979787;28;20046;-82
2022/12/29 11:53:17;;;;;;;3.28;1.13;;;;;;;11.99;40.58;100116.47;4977511;28;20089;-80
2022/12/29 11:55:55;;;;;;;4.22;1.17;;;;;;;11.97;40.83;100113.91;4968718;28;20111;-83
2022/12/29 11:58:29;;;;;;;5.45;1.00;;;;;;;11.94;40.09;100108.75;4971863;28;20129;-81
2022/12/29 12:01:00;;;;;;;3.85;0.90;;;;;;;11.92;41.09;100124.50;4971215;28;20050;-80
2022/12/29 12:03:31;;;;;;;4.68;0.93;;;;;;;11.90;40.57;100128.41;4971445;28;20078;-80
2022/12/29 12:06:02;;;;;;;4.32;0.90;;;;;;;11.87;40.48;100124.13;4970705;28;20049;-79
2022/12/29 12:08:36;;;;;;;2.70;1.00;;;;;;;11.86;40.10;100124.28;4974172;28;20043;-81
2022/12/29 12:11:11;;;;;;;4.70;1.10;;;;;;;11.85;40.33;100139.00;4974802;28;20072;-80
2022/12/29 12:13:48;;;;;;;3.50;1.02;;;;;;;11.81;40.45;100126.63;4971236;28;20047;-83
2022/12/29 12:16:22;;;;;;;5.53;1.20;;;;;;;11.77;40.64;100137.06;4972788;28;20050;-82
2022/12/29 12:18:57;;;;;;;4.25;0.95;;;;;;;11.76;40.90;100135.34;4971630;28;20062;-82
2022/12/29 12:21:31;;;;;;;2.55;0.80;;;;;;;11.77;40.27;100138.94;4970679;28;20047;-81
2022/12/29 12:24:24;;;;;;;2.40;1.00;;;;;;;11.74;40.22;100129.16;4973144;28;20043;-81
2022/12/29 12:26:59;;;;;;;;;;;;;;;11.45;41.76;100145.84;4967704;28;20039;-80
2022/12/29 12:29:36;;;;;;;3.95;1.38;;;;;;;11.67;40.53;100139.03;4971926;28;19922;-80